createdAt,value
2017-08-07T00:01:48.275Z,17.24
2017-08-07T00:04:16.632Z,16.95
2017-08-07T00:06:45.794Z,16.99
2017-08-07T00:09:14.760Z,17.10
2017-08-07T00:11:43.133Z,17.03
2017-08-07T00:14:11.509Z,16.85
2017-08-07T00:16:40.146Z,16.79
2017-08-07T00:19:08.585Z,16.99
2017-08-07T00:21:36.951Z,16.99
2017-08-07T00:24:05.830Z,16.81
2017-08-07T00:26:34.191Z,16.75
2017-08-07T00:29:03.312Z,16.80
2017-08-07T00:31:31.951Z,16.89
2017-08-07T00:34:00.300Z,16.87
2017-08-07T00:36:28.658Z,16.81
2017-08-07T00:38:57.272Z,16.96
2017-08-07T00:41:25.624Z,17.00
2017-08-07T00:43:53.983Z,17.02
2017-08-07T00:46:22.716Z,16.82
2017-08-07T00:48:51.104Z,16.58
2017-08-07T00:51:19.504Z,16.68
2017-08-07T00:53:48.233Z,16.51
2017-08-07T00:56:16.595Z,16.53
2017-08-07T00:58:44.944Z,16.61
2017-08-07T01:01:13.878Z,16.88
2017-08-07T01:03:42.225Z,16.91
2017-08-07T01:06:10.617Z,16.79
2017-08-07T01:08:39.475Z,16.73
2017-08-07T01:11:07.871Z,16.64
2017-08-07T01:13:36.254Z,16.79
2017-08-07T01:16:05.185Z,16.82
2017-08-07T01:18:33.580Z,16.60
2017-08-07T01:21:01.959Z,16.63
2017-08-07T01:23:30.637Z,16.51
2017-08-07T01:25:58.996Z,16.56
2017-08-07T01:28:27.335Z,16.60
2017-08-07T01:30:56.269Z,16.40
2017-08-07T01:33:24.613Z,16.27
2017-08-07T01:35:53.796Z,16.44
2017-08-07T01:38:22.482Z,16.37
2017-08-07T01:40:50.880Z,16.16
2017-08-07T01:43:19.234Z,16.23
2017-08-07T01:45:48.190Z,16.12
2017-08-07T01:48:16.559Z,15.96
2017-08-07T01:50:44.905Z,15.82
2017-08-07T01:53:13.850Z,15.71
2017-08-07T01:55:42.210Z,15.86
2017-08-07T01:58:10.559Z,15.85
2017-08-07T02:00:39.463Z,15.64
2017-08-07T02:03:07.868Z,15.72
2017-08-07T02:05:36.219Z,15.78
2017-08-07T02:08:04.854Z,15.88
2017-08-07T02:10:33.627Z,15.74
2017-08-07T02:13:01.998Z,15.79
2017-08-07T02:15:31.399Z,15.79
2017-08-07T02:17:59.751Z,15.74
2017-08-07T02:20:28.118Z,15.59
2017-08-07T02:22:56.783Z,15.44
2017-08-07T02:25:25.180Z,15.61
2017-08-07T02:27:53.564Z,15.67
2017-08-07T02:30:22.238Z,15.62
2017-08-07T02:32:50.664Z,15.50
2017-08-07T02:35:19.016Z,15.62
2017-08-07T02:37:47.937Z,15.61
2017-08-07T02:40:16.310Z,15.62
2017-08-07T02:42:44.672Z,15.43
2017-08-07T02:45:13.398Z,15.15
2017-08-07T02:47:41.747Z,15.21
2017-08-07T02:50:10.103Z,15.24
2017-08-07T02:52:38.869Z,15.25
2017-08-07T02:55:07.253Z,15.21
2017-08-07T02:57:35.594Z,15.04
2017-08-07T03:00:04.488Z,15.11
2017-08-07T03:02:32.837Z,15.04
2017-08-07T03:05:01.999Z,15.17
2017-08-07T03:07:30.977Z,15.02
2017-08-07T03:09:59.337Z,15.02
2017-08-07T03:12:27.876Z,14.81
2017-08-07T03:14:56.606Z,14.96
2017-08-07T03:17:24.947Z,14.78
2017-08-07T03:19:54.072Z,14.85
2017-08-07T03:22:22.754Z,14.68
2017-08-07T03:24:51.102Z,14.61
2017-08-07T03:27:19.451Z,14.73
2017-08-07T03:29:48.139Z,14.91
2017-08-07T03:32:16.500Z,14.72
2017-08-07T03:34:44.845Z,14.91
2017-08-07T03:37:13.507Z,14.84
2017-08-07T03:39:41.876Z,14.87
2017-08-07T03:42:10.229Z,14.78
2017-08-07T03:44:39.194Z,14.88
2017-08-07T03:47:07.540Z,14.83
2017-08-07T03:49:35.891Z,14.63
2017-08-07T03:52:04.538Z,14.66
2017-08-07T03:54:32.896Z,14.49
2017-08-07T03:57:01.262Z,14.54
2017-08-07T03:59:30.089Z,14.67
2017-08-07T04:01:58.446Z,14.81
2017-08-07T04:04:27.560Z,14.99
2017-08-07T04:06:56.343Z,15.01
2017-08-07T04:09:24.690Z,14.88
2017-08-07T04:11:53.013Z,14.90
2017-08-07T04:14:21.799Z,14.92
2017-08-07T04:16:50.135Z,14.92
2017-08-07T04:19:18.488Z,14.87
2017-08-07T04:21:47.248Z,14.92
2017-08-07T04:24:15.653Z,14.83
2017-08-07T04:26:43.996Z,14.83
2017-08-07T04:29:12.902Z,14.61
2017-08-07T04:31:41.248Z,14.81
2017-08-07T04:34:10.357Z,14.94
2017-08-07T04:36:39.153Z,14.98
2017-08-07T04:39:07.521Z,15.04
2017-08-07T04:41:36.699Z,15.11
2017-08-07T04:44:05.670Z,15.31
2017-08-07T04:46:34.045Z,15.42
2017-08-07T04:49:02.391Z,15.54
2017-08-07T04:51:31.113Z,15.58
2017-08-07T04:53:59.538Z,15.50
2017-08-07T04:56:27.909Z,15.69
2017-08-07T04:58:56.680Z,15.81
2017-08-07T05:01:25.037Z,15.81
2017-08-07T05:03:53.439Z,16.13
2017-08-07T05:06:22.184Z,16.33
2017-08-07T05:08:50.521Z,15.98
2017-08-07T05:11:18.874Z,16.15
2017-08-07T05:13:47.643Z,16.19
2017-08-07T05:16:16.024Z,16.44
2017-08-07T05:18:44.475Z,16.15
2017-08-07T05:21:13.239Z,16.37
2017-08-07T05:23:41.637Z,16.57
2017-08-07T05:26:10.007Z,16.45
2017-08-07T05:28:38.707Z,16.65
2017-08-07T05:31:07.158Z,16.71
2017-08-07T05:33:35.712Z,16.73
2017-08-07T05:36:04.432Z,16.78
2017-08-07T05:38:32.790Z,16.73
2017-08-07T05:41:01.201Z,17.01
2017-08-07T05:43:30.052Z,17.04
2017-08-07T05:45:58.422Z,17.03
2017-08-07T05:48:26.770Z,17.35
2017-08-07T05:50:55.507Z,17.48
2017-08-07T05:53:23.886Z,17.28
2017-08-07T05:55:52.252Z,17.25
2017-08-07T05:58:21.110Z,17.47
2017-08-07T06:00:49.463Z,17.40
2017-08-07T06:03:18.589Z,17.42
2017-08-07T06:05:47.213Z,17.56
2017-08-07T06:08:15.590Z,17.58
2017-08-07T06:10:43.976Z,17.80
2017-08-07T06:13:12.652Z,17.94
2017-08-07T06:15:41.071Z,18.16
2017-08-07T06:18:09.492Z,18.08
2017-08-07T06:20:38.428Z,18.30
2017-08-07T06:23:06.783Z,18.42
2017-08-07T06:25:35.170Z,18.36
2017-08-07T06:28:03.866Z,18.68
2017-08-07T06:30:32.199Z,18.71
2017-08-07T06:33:00.588Z,19.14
2017-08-07T06:35:29.367Z,19.19
2017-08-07T06:37:57.722Z,19.09
2017-08-07T06:40:26.850Z,19.26
2017-08-07T06:42:55.859Z,19.70
2017-08-07T06:45:24.241Z,19.91
2017-08-07T06:47:52.622Z,19.55
2017-08-07T06:50:21.354Z,19.37
2017-08-07T06:52:49.773Z,19.58
2017-08-07T06:55:18.162Z,19.59
2017-08-07T06:57:46.822Z,19.68
2017-08-07T07:00:15.205Z,19.84
2017-08-07T07:02:43.545Z,20.06
2017-08-07T07:05:12.331Z,20.18
2017-08-07T07:07:40.747Z,20.61
2017-08-07T07:10:09.197Z,20.88
2017-08-07T07:12:37.908Z,21.25
2017-08-07T07:15:06.312Z,21.30
2017-08-07T07:17:34.728Z,21.12
2017-08-07T07:20:03.351Z,21.12
2017-08-07T07:22:31.729Z,21.18
2017-08-07T07:25:00.121Z,21.22
2017-08-07T07:27:28.835Z,21.60
2017-08-07T07:29:57.423Z,21.70
2017-08-07T07:32:25.858Z,21.95
2017-08-07T07:34:54.529Z,21.95
2017-08-07T07:37:22.924Z,21.65
2017-08-07T07:39:51.329Z,21.42
2017-08-07T07:42:20.210Z,21.46
2017-08-07T07:44:48.594Z,21.75
2017-08-07T07:47:16.999Z,22.06
2017-08-07T07:49:45.761Z,22.40
2017-08-07T07:52:14.182Z,22.46
2017-08-07T07:54:42.765Z,22.82
2017-08-07T07:57:11.544Z,22.99
2017-08-07T07:59:39.917Z,23.19
2017-08-07T08:02:08.282Z,23.16
2017-08-07T08:04:37.025Z,22.99
2017-08-07T08:07:06.140Z,23.25
2017-08-07T08:09:34.527Z,23.73
2017-08-07T08:12:03.807Z,23.86
2017-08-07T08:14:32.225Z,23.57
2017-08-07T08:17:00.621Z,22.88
2017-08-07T08:19:29.286Z,23.37
2017-08-07T08:21:57.735Z,23.59
2017-08-07T08:24:26.179Z,23.89
2017-08-07T08:26:54.866Z,24.04
2017-08-07T08:29:23.260Z,23.86
2017-08-07T08:31:51.626Z,23.66
2017-08-07T08:34:20.896Z,24.14
2017-08-07T08:36:49.354Z,24.39
2017-08-07T08:39:17.732Z,24.27
2017-08-07T08:41:46.502Z,24.35
2017-08-07T08:44:14.874Z,24.29
2017-08-07T08:46:43.545Z,24.59
2017-08-07T08:49:13.527Z,25.01
2017-08-07T08:51:42.577Z,24.71
2017-08-07T08:54:11.249Z,24.71
2017-08-07T08:56:40.298Z,25.12
2017-08-07T08:59:09.603Z,25.23
2017-08-07T09:01:37.986Z,25.56
2017-08-07T09:04:06.881Z,25.82
2017-08-07T09:06:35.264Z,26.09
2017-08-07T09:09:03.674Z,25.65
2017-08-07T09:11:32.541Z,25.64
2017-08-07T09:14:00.914Z,25.98
2017-08-07T09:16:29.283Z,25.71
2017-08-07T09:18:58.083Z,25.66
2017-08-07T09:21:26.430Z,25.66
2017-08-07T09:23:54.786Z,26.24
2017-08-07T09:26:23.553Z,26.78
2017-08-07T09:28:51.924Z,26.88
2017-08-07T09:31:20.304Z,27.07
2017-08-07T09:33:48.987Z,27.06
2017-08-07T09:36:17.368Z,26.50
2017-08-07T09:38:45.746Z,27.07
2017-08-07T09:41:15.045Z,26.98
2017-08-07T09:43:43.423Z,26.85
2017-08-07T09:46:11.811Z,27.40
2017-08-07T09:48:40.775Z,27.68
2017-08-07T09:51:09.173Z,28.11
2017-08-07T09:53:37.520Z,28.49
2017-08-07T09:56:06.415Z,28.46
2017-08-07T09:58:34.838Z,27.80
2017-08-07T10:01:03.227Z,26.97
2017-08-07T10:03:32.021Z,26.73
2017-08-07T10:06:00.412Z,26.81
2017-08-07T10:08:29.589Z,27.34
2017-08-07T10:10:58.288Z,27.87
2017-08-07T10:13:26.672Z,28.14
2017-08-07T10:15:55.060Z,28.36
2017-08-07T10:18:23.793Z,28.57
2017-08-07T10:20:52.174Z,27.49
2017-08-07T10:23:20.554Z,27.78
2017-08-07T10:25:49.532Z,27.83
2017-08-07T10:28:17.943Z,27.49
2017-08-07T10:30:46.312Z,27.33
2017-08-07T10:33:15.036Z,27.38
2017-08-07T10:35:43.440Z,28.22
2017-08-07T10:38:12.591Z,27.83
2017-08-07T10:40:41.345Z,28.90
2017-08-07T10:43:09.754Z,28.46
2017-08-07T10:45:38.095Z,28.42
2017-08-07T10:48:13.455Z,28.43
2017-08-07T10:50:41.819Z,27.89
2017-08-07T10:53:10.196Z,27.92
2017-08-07T10:55:38.979Z,27.79
2017-08-07T10:58:07.364Z,28.08
2017-08-07T11:00:35.743Z,27.82
2017-08-07T11:03:04.501Z,28.24
2017-08-07T11:05:33.645Z,28.67
2017-08-07T11:08:02.006Z,29.42
2017-08-07T11:10:30.684Z,28.97
2017-08-07T11:12:58.997Z,28.50
2017-08-07T11:15:27.351Z,28.38
2017-08-07T11:17:56.004Z,28.59
2017-08-07T11:20:24.356Z,29.16
2017-08-07T11:22:52.746Z,28.88
2017-08-07T11:25:21.378Z,29.31
2017-08-07T11:27:49.731Z,29.07
2017-08-07T11:30:18.074Z,29.90
2017-08-07T11:32:47.242Z,29.70
2017-08-07T11:35:15.623Z,30.26
2017-08-07T11:37:43.981Z,30.33
2017-08-07T11:40:12.871Z,29.57
2017-08-07T11:42:41.247Z,28.81
2017-08-07T11:45:10.360Z,28.52
2017-08-07T11:47:39.033Z,28.94
2017-08-07T11:50:07.451Z,29.60
2017-08-07T11:52:35.812Z,29.94
2017-08-07T11:55:04.630Z,30.08
2017-08-07T11:57:33.020Z,29.77
2017-08-07T12:00:01.408Z,30.21
2017-08-07T12:02:30.035Z,30.24
2017-08-07T12:04:58.371Z,29.74
2017-08-07T12:07:26.712Z,29.69
2017-08-07T12:09:55.466Z,29.96
2017-08-07T12:12:23.839Z,29.29
2017-08-07T12:14:52.981Z,29.70
2017-08-07T12:17:21.683Z,29.39
2017-08-07T12:19:50.065Z,29.53
2017-08-07T12:22:18.434Z,28.87
2017-08-07T12:24:47.160Z,28.58
2017-08-07T12:27:15.555Z,28.50
2017-08-07T12:29:43.919Z,27.93
2017-08-07T12:32:12.614Z,28.76
2017-08-07T12:34:40.981Z,29.09
2017-08-07T12:37:09.424Z,29.43
2017-08-07T12:39:38.316Z,29.54
2017-08-07T12:42:06.666Z,29.21
2017-08-07T12:44:35.023Z,28.83
2017-08-07T12:47:03.657Z,28.87
2017-08-07T12:49:32.024Z,29.38
2017-08-07T12:52:00.469Z,29.50
2017-08-07T12:54:29.393Z,29.21
2017-08-07T12:56:57.765Z,29.60
2017-08-07T12:59:26.115Z,29.41
2017-08-07T13:01:55.027Z,29.43
2017-08-07T13:04:23.383Z,29.77
2017-08-07T13:06:52.525Z,29.65
2017-08-07T13:09:21.240Z,28.67
2017-08-07T13:11:49.597Z,29.21
2017-08-07T13:14:17.954Z,29.26
2017-08-07T13:16:46.959Z,29.59
2017-08-07T13:19:15.358Z,30.00
2017-08-07T13:21:43.723Z,30.29
2017-08-07T13:24:12.605Z,29.42
2017-08-07T13:26:40.967Z,29.58
2017-08-07T13:29:09.318Z,29.56
2017-08-07T13:31:38.188Z,29.83
2017-08-07T13:34:06.538Z,29.96
2017-08-07T13:36:34.881Z,29.20
2017-08-07T13:39:04.298Z,29.12
2017-08-07T13:41:32.676Z,28.93
2017-08-07T13:44:01.035Z,29.40
2017-08-07T13:46:29.803Z,29.62
2017-08-07T13:48:58.200Z,28.97
2017-08-07T13:51:26.593Z,28.53
2017-08-07T13:53:55.299Z,28.63
2017-08-07T13:56:23.677Z,28.62
2017-08-07T13:58:52.046Z,28.42
2017-08-07T14:01:20.743Z,28.71
2017-08-07T14:03:49.106Z,28.09
2017-08-07T14:06:17.495Z,29.06
2017-08-07T14:08:46.530Z,30.00
2017-08-07T14:11:14.908Z,30.74
2017-08-07T14:13:43.266Z,29.88
2017-08-07T14:16:11.950Z,30.08
2017-08-07T14:18:40.301Z,29.41
2017-08-07T14:21:08.638Z,28.98
2017-08-07T14:23:37.378Z,29.12
2017-08-07T14:26:05.752Z,29.47
2017-08-07T14:28:34.106Z,29.71
2017-08-07T14:31:03.085Z,29.42
2017-08-07T14:33:31.455Z,29.25
2017-08-07T14:35:59.821Z,29.68
2017-08-07T14:38:28.429Z,29.22
2017-08-07T14:40:56.774Z,29.07
2017-08-07T14:43:25.149Z,29.40
2017-08-07T14:45:53.939Z,30.08
2017-08-07T14:48:22.345Z,29.42
2017-08-07T14:50:50.736Z,29.06
2017-08-07T14:53:19.460Z,29.23
2017-08-07T14:55:48.653Z,28.72
2017-08-07T14:58:17.088Z,29.00
2017-08-07T15:00:46.025Z,29.03
2017-08-07T15:03:14.378Z,28.57
2017-08-07T15:05:42.760Z,28.46
2017-08-07T15:08:11.721Z,28.94
2017-08-07T15:10:40.078Z,28.75
2017-08-07T15:13:08.458Z,28.61
2017-08-07T15:15:37.359Z,28.48
2017-08-07T15:18:05.708Z,28.90
2017-08-07T15:20:34.087Z,29.58
2017-08-07T15:23:02.804Z,29.48
2017-08-07T15:25:31.156Z,28.46
2017-08-07T15:27:59.547Z,28.04
2017-08-07T15:30:28.237Z,28.57
2017-08-07T15:32:56.608Z,29.04
2017-08-07T15:35:25.017Z,28.97
2017-08-07T15:37:54.111Z,28.99
2017-08-07T15:40:22.493Z,28.76
2017-08-07T15:42:50.864Z,28.41
2017-08-07T15:45:19.583Z,28.28
2017-08-07T15:47:47.944Z,28.36
2017-08-07T15:50:16.293Z,28.60
2017-08-07T15:52:45.173Z,28.52
2017-08-07T15:55:13.501Z,28.75
2017-08-07T15:57:41.863Z,29.00
2017-08-07T16:00:10.884Z,28.99
2017-08-07T16:02:39.282Z,29.02
2017-08-07T16:05:07.687Z,28.99
2017-08-07T16:07:36.392Z,29.34
2017-08-07T16:10:04.776Z,29.47
2017-08-07T16:12:33.135Z,29.44
2017-08-07T16:15:01.756Z,29.19
2017-08-07T16:17:30.140Z,29.32
2017-08-07T16:19:58.541Z,29.21
2017-08-07T16:22:27.247Z,28.56
2017-08-07T16:24:55.606Z,28.78
2017-08-07T16:27:23.984Z,28.66
2017-08-07T16:30:02.419Z,28.42
2017-08-07T16:32:30.857Z,28.65
2017-08-07T16:34:59.234Z,28.34
2017-08-07T16:37:28.281Z,27.95
2017-08-07T16:39:56.715Z,28.18
2017-08-07T16:42:25.074Z,28.43
2017-08-07T16:44:53.922Z,28.33
2017-08-07T16:47:22.272Z,28.17
2017-08-07T16:49:50.643Z,28.59
2017-08-07T16:52:19.333Z,28.54
2017-08-07T16:54:47.681Z,28.59
2017-08-07T16:57:16.051Z,28.02
2017-08-07T16:59:45.282Z,27.94
2017-08-07T17:02:13.660Z,28.28
2017-08-07T17:04:42.046Z,28.33
2017-08-07T17:07:10.914Z,28.45
2017-08-07T17:09:39.277Z,28.28
2017-08-07T17:12:07.653Z,28.38
2017-08-07T17:14:36.422Z,28.17
2017-08-07T17:17:05.551Z,28.39
2017-08-07T17:19:33.897Z,28.51
2017-08-07T17:22:02.582Z,28.57
2017-08-07T17:24:30.924Z,28.49
2017-08-07T17:26:59.292Z,28.26
2017-08-07T17:29:28.002Z,27.93
2017-08-07T17:31:56.343Z,27.98
2017-08-07T17:34:24.688Z,27.96
2017-08-07T17:36:53.457Z,27.77
2017-08-07T17:39:21.801Z,27.75
2017-08-07T17:41:50.143Z,27.88
2017-08-07T17:44:19.186Z,27.86
2017-08-07T17:46:47.546Z,27.99
2017-08-07T17:49:15.916Z,28.10
2017-08-07T17:51:44.791Z,28.18
2017-08-07T17:54:13.166Z,28.21
2017-08-07T17:56:42.401Z,28.22
2017-08-07T17:59:11.029Z,28.16
2017-08-07T18:01:39.392Z,27.99
2017-08-07T18:04:07.748Z,28.03
2017-08-07T18:06:36.456Z,27.95
2017-08-07T18:09:04.805Z,28.11
2017-08-07T18:11:33.151Z,28.05
2017-08-07T18:14:02.795Z,28.06
2017-08-07T18:16:31.162Z,28.07
2017-08-07T18:18:59.502Z,28.14
2017-08-07T18:21:28.242Z,28.08
2017-08-07T18:23:56.595Z,28.07
2017-08-07T18:26:24.967Z,27.99
2017-08-07T18:28:53.696Z,27.90
2017-08-07T18:31:22.046Z,27.82
2017-08-07T18:33:50.395Z,27.71
2017-08-07T18:36:19.333Z,27.64
2017-08-07T18:38:47.745Z,27.46
2017-08-07T18:41:16.100Z,27.34
2017-08-07T18:43:44.996Z,27.25
2017-08-07T18:46:13.361Z,27.05
2017-08-07T18:48:41.733Z,26.86
2017-08-07T18:51:10.612Z,26.69
2017-08-07T18:53:38.949Z,26.79
2017-08-07T18:56:07.321Z,26.80
2017-08-07T18:58:36.039Z,26.81
2017-08-07T19:01:08.690Z,26.65
2017-08-07T19:03:47.272Z,26.46
2017-08-07T19:06:15.639Z,26.31
2017-08-07T19:08:44.079Z,26.11
2017-08-07T19:11:12.824Z,26.11
2017-08-07T19:13:41.196Z,26.02
2017-08-07T19:16:09.596Z,25.87
2017-08-07T19:18:38.480Z,25.70
2017-08-07T19:21:06.833Z,25.60
2017-08-07T19:23:35.245Z,25.60
2017-08-07T19:26:03.887Z,25.60
2017-08-07T19:28:32.290Z,25.37
2017-08-07T19:31:00.670Z,25.38
2017-08-07T19:33:29.604Z,25.27
2017-08-07T19:35:57.948Z,25.20
2017-08-07T19:38:26.351Z,25.05
2017-08-07T19:40:55.018Z,24.94
2017-08-07T19:43:23.378Z,24.96
2017-08-07T19:45:56.981Z,24.61
2017-08-07T19:48:26.308Z,24.53
2017-08-07T19:50:54.706Z,24.48
2017-08-07T19:53:23.584Z,24.35
2017-08-07T19:55:51.936Z,24.30
2017-08-07T19:58:20.299Z,24.22
2017-08-07T20:00:48.965Z,24.22
2017-08-07T20:03:17.355Z,24.18
2017-08-07T20:05:45.758Z,24.04
2017-08-07T20:08:14.645Z,24.12
2017-08-07T20:10:43.003Z,23.95
2017-08-07T20:13:12.120Z,23.65
2017-08-07T20:15:40.861Z,23.60
2017-08-07T20:18:09.264Z,23.64
2017-08-07T20:20:37.691Z,23.67
2017-08-07T20:23:06.581Z,23.63
2017-08-07T20:25:34.930Z,23.62
2017-08-07T20:28:04.073Z,23.58
2017-08-07T20:30:32.862Z,23.42
2017-08-07T20:33:01.269Z,23.25
2017-08-07T20:35:29.652Z,23.18
2017-08-07T20:37:58.503Z,23.02
2017-08-07T20:40:26.872Z,23.02
2017-08-07T20:42:55.300Z,23.19
2017-08-07T20:45:24.959Z,23.15
2017-08-07T20:47:53.338Z,23.01
2017-08-07T20:50:21.766Z,22.99
2017-08-07T20:52:50.627Z,23.03
2017-08-07T20:55:18.994Z,23.00
2017-08-07T20:57:47.390Z,22.81
2017-08-07T21:00:16.222Z,22.89
2017-08-07T21:02:44.619Z,22.74
2017-08-07T21:05:13.021Z,22.63
2017-08-07T21:07:41.925Z,22.65
2017-08-07T21:10:10.264Z,22.56
2017-08-07T21:12:38.658Z,22.50
2017-08-07T21:15:07.404Z,22.34
2017-08-07T21:17:35.844Z,22.32
2017-08-07T21:20:04.256Z,22.34
2017-08-07T21:22:33.242Z,22.19
2017-08-07T21:25:01.632Z,22.12
2017-08-07T21:27:30.002Z,22.05
2017-08-07T21:29:58.665Z,21.90
2017-08-07T21:32:27.027Z,21.76
2017-08-07T21:34:55.394Z,21.80
2017-08-07T21:37:24.091Z,21.84
2017-08-07T21:39:52.445Z,21.77
2017-08-07T21:42:20.827Z,21.62
2017-08-07T21:44:49.864Z,21.64
2017-08-07T21:47:18.238Z,21.51
2017-08-07T21:49:46.629Z,21.43
2017-08-07T21:52:15.290Z,21.40
2017-08-07T21:54:43.692Z,21.30
2017-08-07T21:57:12.091Z,21.33
2017-08-07T21:59:40.851Z,21.20
2017-08-07T22:02:09.272Z,21.26
2017-08-07T22:04:37.624Z,21.35
2017-08-07T22:07:06.702Z,21.24
2017-08-07T22:09:35.064Z,21.26
2017-08-07T22:12:03.465Z,21.14
2017-08-07T22:14:32.117Z,21.08
2017-08-07T22:17:00.534Z,20.92
2017-08-07T22:19:28.926Z,20.90
2017-08-07T22:21:57.782Z,20.89
2017-08-07T22:24:26.178Z,20.65
2017-08-07T22:26:54.548Z,20.40
2017-08-07T22:29:23.429Z,20.51
2017-08-07T22:31:51.818Z,20.46
2017-08-07T22:34:20.181Z,20.33
2017-08-07T22:36:48.906Z,20.32
2017-08-07T22:39:17.292Z,20.32
2017-08-07T22:41:45.656Z,20.37
2017-08-07T22:44:14.539Z,20.32
2017-08-07T22:46:42.948Z,20.27
2017-08-07T22:49:11.346Z,20.24
2017-08-07T22:51:41.225Z,20.25
2017-08-07T22:54:09.595Z,20.14
2017-08-07T22:56:38.017Z,20.29
2017-08-07T22:59:06.756Z,20.35
2017-08-07T23:01:35.133Z,20.42
2017-08-07T23:04:03.488Z,20.47
2017-08-07T23:06:32.167Z,20.48
2017-08-07T23:09:00.544Z,20.30
2017-08-07T23:11:28.892Z,20.49
2017-08-07T23:13:57.764Z,20.61
2017-08-07T23:16:26.169Z,20.45
2017-08-07T23:18:54.539Z,20.52
2017-08-07T23:21:23.219Z,20.49
2017-08-07T23:23:51.587Z,20.47
2017-08-07T23:26:19.961Z,20.37
2017-08-07T23:28:48.842Z,20.48
2017-08-07T23:31:17.202Z,20.44
2017-08-07T23:33:45.582Z,20.24
2017-08-07T23:36:14.292Z,20.33
2017-08-07T23:38:42.661Z,20.18
2017-08-07T23:41:11.012Z,20.12
2017-08-07T23:43:39.735Z,20.38
2017-08-07T23:46:08.148Z,20.45
2017-08-07T23:48:36.608Z,20.41
2017-08-07T23:51:05.379Z,20.33
2017-08-07T23:53:33.768Z,20.21
2017-08-07T23:56:02.216Z,20.25
2017-08-07T23:58:31.111Z,20.28
